Time;durP1;ratioP1;P1;durP2;ratioP2;P2;SDS_P1;SDS_P2;PMS_P1;PMS_P2;Temp;Humidity;BMP_temperature;BMP_pressure;BME280_temperature;BME280_humidity;BME280_pressure;Samples;Min_cycle;Max_cycle;Signal;HPM_P1;HPM_P2
2023/08/20 00:02:27;;;;;;;3.70;3.22;;;;;;;30.88;33.80;96622.69;5077748;28;20028;-30
2023/08/20 00:04:56;;;;;;;3.35;3.05;;;;;;;31.20;33.33;96624.94;5086995;28;20359;-30
2023/08/20 00:07:22;;;;;;;3.50;3.20;;;;;;;30.93;33.37;96627.34;5075818;28;20021;-30
2023/08/20 00:09:47;;;;;;;4.20;3.50;;;;;;;31.07;33.10;96622.31;5082954;28;20023;-30
2023/08/20 00:12:13;;;;;;;2.88;2.67;;;;;;;30.73;33.75;96617.06;5075738;28;20025;-30
2023/08/20 00:15:07;;;;;;;3.63;2.80;;;;;;;31.03;33.38;96614.28;5076420;28;20545;-30
2023/08/20 00:17:34;;;;;;;4.55;3.38;;;;;;;31.17;32.99;96623.25;5078161;28;20446;-30
2023/08/20 00:20:01;;;;;;;3.38;3.08;;;;;;;31.10;33.22;96612.06;5082079;28;20058;-30
2023/08/20 00:22:27;;;;;;;3.45;3.10;;;;;;;30.93;33.02;96610.53;5089924;28;20028;-30
2023/08/20 00:24:54;;;;;;;3.58;3.28;;;;;;;31.13;32.73;96605.34;5083160;28;20485;-30
2023/08/20 00:27:20;;;;;;;3.53;2.92;;;;;;;31.06;32.67;96604.00;5082893;28;20043;-30
2023/08/20 00:29:45;;;;;;;3.67;3.10;;;;;;;30.96;32.80;96597.47;5083053;28;20028;-30
2023/08/20 00:32:11;;;;;;;3.95;3.55;;;;;;;30.88;33.15;96602.34;5082792;28;20020;-30
2023/08/20 00:34:36;;;;;;;4.53;2.97;;;;;;;31.02;32.91;96590.41;5082489;28;20019;-30
2023/08/20 00:37:02;;;;;;;4.38;2.85;;;;;;;30.82;33.30;96593.34;5082383;28;20351;-30
2023/08/20 00:39:31;;;;;;;3.63;3.15;;;;;;;30.77;33.58;96600.66;5081107;28;20173;-30
2023/08/20 00:41:57;;;;;;;4.32;3.28;;;;;;;30.91;33.12;96604.75;5082088;28;20107;-30
2023/08/20 00:44:23;;;;;;;3.08;2.78;;;;;;;30.98;33.37;96601.22;5082362;28;20070;-30
2023/08/20 00:46:50;;;;;;;3.28;2.97;;;;;;;30.87;33.20;96598.78;5075251;28;20095;-30
2023/08/20 00:49:17;;;;;;;3.45;3.15;;;;;;;30.92;32.90;96605.50;5075870;28;20020;-30
2023/08/20 00:51:43;;;;;;;3.88;3.25;;;;;;;30.78;33.21;96593.75;5082325;28;20031;-30
2023/08/20 00:54:09;;;;;;;4.72;3.20;;;;;;;30.91;33.50;96596.34;5089573;28;20509;-30
2023/08/20 00:56:35;;;;;;;3.40;3.10;;;;;;;30.92;33.67;96597.84;5075136;28;20032;-30
2023/08/20 00:59:01;;;;;;;4.95;3.03;;;;;;;30.81;33.11;96603.81;5082152;28;20062;-30
2023/08/20 01:01:26;;;;;;;3.40;3.10;;;;;;;30.77;33.36;96603.44;5082336;28;20124;-30
2023/08/20 01:03:52;;;;;;;5.47;2.92;;;;;;;30.63;34.02;96605.66;5074058;28;20485;-30
2023/08/20 01:06:29;;;;;;;3.55;3.15;;;;;;;30.57;33.96;96607.13;5082446;28;20551;-30
2023/08/20 01:09:04;;;;;;;4.57;3.30;;;;;;;30.69;33.56;96611.06;5081825;28;20036;-30
2023/08/20 01:11:46;;;;;;;3.53;3.00;;;;;;;30.95;33.32;96607.19;5090482;28;20024;-30
2023/08/20 01:14:16;;;;;;;5.32;3.33;;;;;;;30.70;34.23;96610.53;5085401;28;20025;-30
2023/08/20 01:16:42;;;;;;;6.10;3.60;;;;;;;30.87;33.71;96612.78;5074870;28;20021;-30
2023/08/20 01:19:14;;;;;;;6.68;3.20;;;;;;;30.66;34.05;96606.63;5082062;28;20389;-30
2023/08/20 01:22:01;;;;;;;3.58;3.15;;;;;;;30.85;33.26;96612.59;5073524;28;20482;-30
2023/08/20 01:25:03;;;;;;;4.50;3.30;;;;;;;30.74;33.85;96610.16;5069396;28;20098;-30
2023/08/20 01:27:51;;;;;;;4.05;3.25;;;;;;;30.74;33.40;96612.22;5081171;28;20279;-30
2023/08/20 01:30:19;;;;;;;3.33;2.92;;;;;;;30.47;34.37;96611.75;5079278;28;20044;-30
2023/08/20 01:32:45;;;;;;;3.65;2.92;;;;;;;30.59;33.76;96610.88;5076275;28;20016;-30
2023/08/20 01:35:16;;;;;;;3.35;3.05;;;;;;;30.64;33.93;96609.22;5081194;28;20042;-30
2023/08/20 01:37:41;;;;;;;3.65;3.05;;;;;;;30.76;34.36;96607.56;5072241;28;20350;-30
2023/08/20 01:40:10;;;;;;;3.30;3.00;;;;;;;30.82;33.52;96608.09;5081731;28;20023;-30
2023/08/20 01:42:39;;;;;;;3.55;3.20;;;;;;;30.49;34.18;96606.34;5081262;28;20029;-30
2023/08/20 01:45:06;;;;;;;5.85;2.92;;;;;;;30.74;34.34;96598.97;5080294;28;20477;-30
2023/08/20 01:47:32;;;;;;;4.47;3.10;;;;;;;30.67;33.99;96599.69;5080980;28;20522;-30
2023/08/20 01:49:58;;;;;;;3.50;3.20;;;;;;;30.46;34.92;96604.66;5081503;28;20377;-30
2023/08/20 01:52:24;;;;;;;6.45;3.30;;;;;;;30.69;34.05;96602.69;5077015;28;20024;-32
2023/08/20 01:54:50;;;;;;;4.68;3.55;;;;;;;30.72;34.00;96601.56;5085454;28;20095;-30
2023/08/20 01:57:15;;;;;;;4.88;3.17;;;;;;;30.35;34.45;96598.13;5081903;28;20439;-30
2023/08/20 01:59:41;;;;;;;4.95;3.30;;;;;;;30.44;34.45;96599.63;5087353;28;20012;-30
2023/08/20 02:02:06;;;;;;;3.80;3.50;;;;;;;30.65;33.78;96602.31;5073300;28;20051;-30
2023/08/20 02:04:33;;;;;;;3.80;3.35;;;;;;;30.58;34.00;96592.59;5081201;28;20059;-30
2023/08/20 02:06:58;;;;;;;4.22;3.47;;;;;;;30.68;34.18;96585.13;5086904;28;20380;-30
2023/08/20 02:09:24;;;;;;;6.38;3.55;;;;;;;30.82;34.03;96593.34;5075404;28;20021;-30
2023/08/20 02:11:52;;;;;;;4.88;3.53;;;;;;;30.57;34.05;96591.09;5079868;28;20020;-30
2023/08/20 02:14:18;;;;;;;6.78;3.35;;;;;;;30.40;34.93;96587.31;5080477;28;20021;-30
2023/08/20 02:16:44;;;;;;;3.10;2.90;;;;;;;30.54;34.45;96589.41;5080700;28;20031;-30
2023/08/20 02:19:10;;;;;;;3.90;3.50;;;;;;;30.39;34.45;96594.22;5079073;28;20027;-30
2023/08/20 02:21:35;;;;;;;6.28;3.08;;;;;;;30.51;34.27;96586.97;5075740;28;20047;-30
2023/08/20 02:24:01;;;;;;;3.88;3.47;;;;;;;30.49;34.30;96589.56;5080114;28;20024;-30
2023/08/20 02:26:26;;;;;;;3.72;3.33;;;;;;;30.63;34.15;96596.53;5080613;28;20072;-30
2023/08/20 02:28:52;;;;;;;4.13;3.15;;;;;;;30.43;34.67;96580.59;5082099;28;20024;-31
2023/08/20 02:31:18;;;;;;;4.45;3.33;;;;;;;30.53;34.97;96585.13;5086076;28;20054;-30
2023/08/20 02:33:43;;;;;;;5.63;3.10;;;;;;;30.49;34.26;96581.91;5080571;28;20107;-30
2023/08/20 02:36:08;;;;;;;3.88;3.30;;;;;;;30.75;34.18;96594.84;5080466;28;20024;-30
2023/08/20 02:38:34;;;;;;;4.18;3.65;;;;;;;30.31;34.63;96580.19;5079809;28;20044;-30
2023/08/20 02:41:00;;;;;;;3.67;3.17;;;;;;;30.55;34.61;96587.34;5075572;28;20023;-30
2023/08/20 02:43:26;;;;;;;3.95;2.97;;;;;;;30.49;34.29;96579.13;5078638;28;20024;-30
2023/08/20 02:45:51;;;;;;;3.10;2.90;;;;;;;30.63;34.02;96579.72;5079847;28;20145;-30
2023/08/20 02:48:17;;;;;;;4.57;3.10;;;;;;;30.41;34.35;96572.78;5080300;28;20016;-30
2023/08/20 02:50:43;;;;;;;3.35;3.05;;;;;;;30.29;35.08;96577.94;5080177;28;20099;-30
2023/08/20 02:53:08;;;;;;;3.40;3.10;;;;;;;30.19;35.15;96574.19;5071694;28;20024;-30
2023/08/20 02:55:35;;;;;;;3.50;3.20;;;;;;;30.49;34.45;96572.78;5080435;28;20023;-30
2023/08/20 02:58:02;;;;;;;3.13;2.83;;;;;;;30.35;34.71;96580.56;5083160;28;20053;-30
2023/08/20 03:00:27;;;;;;;3.60;3.30;;;;;;;30.56;34.15;96578.41;5087070;28;20545;-30
2023/08/20 03:02:53;;;;;;;6.90;3.20;;;;;;;30.49;34.47;96573.53;5087592;28;20099;-30
2023/08/20 03:05:18;;;;;;;3.97;3.20;;;;;;;30.67;34.51;96577.28;5086073;28;20024;-30
2023/08/20 03:07:44;;;;;;;4.60;3.40;;;;;;;30.42;34.26;96571.44;5075678;28;20020;-30
2023/08/20 03:10:09;;;;;;;3.50;3.20;;;;;;;30.25;34.61;96571.97;5077233;28;20028;-30
2023/08/20 03:12:35;;;;;;;3.83;3.22;;;;;;;30.46;34.59;96573.88;5091822;28;20020;-30
2023/08/20 03:15:00;;;;;;;3.47;3.17;;;;;;;30.48;34.60;96582.47;5082812;28;20025;-30
2023/08/20 03:17:26;;;;;;;3.88;3.15;;;;;;;30.18;34.83;96575.50;5091418;28;20016;-30
2023/08/20 03:19:56;;;;;;;3.55;3.25;;;;;;;30.40;34.87;96576.88;5083821;28;20012;-30
2023/08/20 03:22:22;;;;;;;3.50;3.20;;;;;;;30.32;34.98;96573.28;5091141;28;20055;-30
2023/08/20 03:24:47;;;;;;;3.92;3.05;;;;;;;30.46;34.82;96580.22;5076683;28;20070;-30
2023/08/20 03:27:13;;;;;;;3.63;3.30;;;;;;;30.47;34.50;96575.38;5082455;28;20023;-30
2023/08/20 03:29:38;;;;;;;4.82;4.03;;;;;;;30.34;35.15;96579.81;5078845;28;20448;-30
2023/08/20 03:32:04;;;;;;;4.28;3.70;;;;;;;30.45;34.72;96577.97;5087192;28;20024;-30
2023/08/20 03:34:29;;;;;;;4.50;3.80;;;;;;;30.41;35.28;96580.41;5078906;28;20023;-30
2023/08/20 03:36:55;;;;;;;4.10;3.78;;;;;;;30.38;34.86;96584.31;5084693;28;20031;-30
2023/08/20 03:39:20;;;;;;;4.18;3.78;;;;;;;30.16;35.46;96578.13;5082073;28;20444;-30
2023/08/20 03:41:46;;;;;;;5.55;3.38;;;;;;;30.35;35.67;96581.31;5083210;28;20170;-30
2023/08/20 03:44:11;;;;;;;6.75;3.97;;;;;;;30.42;35.33;96573.50;5086247;28;20600;-30
2023/08/20 03:46:37;;;;;;;3.95;3.58;;;;;;;30.17;35.75;96576.78;5087163;28;20020;-31
2023/08/20 03:49:02;;;;;;;4.20;3.75;;;;;;;30.41;35.22;96575.56;5078105;28;20033;-30
2023/08/20 03:51:28;;;;;;;4.20;3.90;;;;;;;30.09;35.91;96581.63;5086816;28;20136;-30
2023/08/20 03:53:53;;;;;;;4.97;3.70;;;;;;;30.34;34.90;96579.81;5086508;28;20004;-31
2023/08/20 03:56:19;;;;;;;7.00;3.97;;;;;;;30.09;35.53;96586.47;5078499;28;20028;-30
2023/08/20 03:58:44;;;;;;;4.68;3.88;;;;;;;30.05;36.20;96578.44;5081559;28;20024;-30
2023/08/20 04:01:09;;;;;;;4.22;3.83;;;;;;;30.24;35.32;96578.88;5083322;28;20027;-30
2023/08/20 04:03:35;;;;;;;4.47;4.07;;;;;;;30.17;35.67;96576.03;5083106;28;20025;-30
2023/08/20 04:06:00;;;;;;;5.10;3.50;;;;;;;30.20;35.95;96578.47;5083132;28;20029;-30
2023/08/20 04:08:26;;;;;;;4.13;3.83;;;;;;;30.15;35.93;96562.63;5081857;28;20053;-30
2023/08/20 04:10:52;;;;;;;4.20;3.80;;;;;;;30.14;35.90;96566.72;5082633;28;20059;-29
2023/08/20 04:13:18;;;;;;;4.93;3.80;;;;;;;29.99;36.09;96569.47;5083074;28;20032;-31
2023/08/20 04:15:44;;;;;;;5.22;4.15;;;;;;;30.06;36.14;96565.94;5086286;28;20362;-30
2023/08/20 04:18:09;;;;;;;4.60;3.55;;;;;;;29.93;36.33;96569.59;5086198;28;20027;-30
2023/08/20 04:20:35;;;;;;;6.00;4.95;;;;;;;30.09;36.22;96576.03;5084191;28;20044;-30
2023/08/20 04:23:00;;;;;;;6.20;5.38;;;;;;;29.96;36.76;96573.38;5082583;28;20427;-30
2023/08/20 04:25:26;;;;;;;10.00;5.13;;;;;;;30.04;36.61;96573.41;5083452;28;20500;-30
2023/08/20 04:27:52;;;;;;;6.82;4.72;;;;;;;30.11;36.65;96576.22;5075777;28;20028;-30
2023/08/20 04:30:17;;;;;;;5.65;4.60;;;;;;;30.00;36.75;96579.34;5082670;28;20075;-30
2023/08/20 04:32:43;;;;;;;6.75;4.60;;;;;;;29.87;37.00;96579.47;5082790;28;20107;-30
2023/08/20 04:35:09;;;;;;;9.15;4.95;;;;;;;29.92;36.88;96586.94;5082653;28;20519;-31
2023/08/20 04:37:35;;;;;;;6.43;4.72;;;;;;;30.13;36.78;96590.41;5082361;28;20099;-30
2023/08/20 04:40:01;;;;;;;5.60;4.15;;;;;;;30.10;36.48;96587.97;5075633;28;20444;-30
2023/08/20 04:42:27;;;;;;;6.25;4.53;;;;;;;30.27;36.84;96591.75;5085721;28;20045;-29
2023/08/20 04:44:52;;;;;;;5.63;4.75;;;;;;;29.93;37.12;96591.22;5077691;28;20024;-30
2023/08/20 04:47:18;;;;;;;4.57;4.18;;;;;;;29.87;37.25;96596.97;5082922;28;20485;-30
2023/08/20 04:49:44;;;;;;;5.10;4.53;;;;;;;29.92;37.41;96589.75;5081062;28;20420;-30
2023/08/20 04:52:09;;;;;;;6.95;4.70;;;;;;;30.17;36.73;96593.56;5082918;28;20020;-30
2023/08/20 04:54:34;;;;;;;6.05;4.65;;;;;;;30.27;36.46;96586.16;5073432;28;20489;-30
2023/08/20 04:57:00;;;;;;;6.63;5.10;;;;;;;30.15;37.40;96587.06;5082026;28;20114;-30
2023/08/20 04:59:26;;;;;;;5.80;4.55;;;;;;;30.06;37.34;96590.34;5082335;28;20040;-30
2023/08/20 05:01:51;;;;;;;6.95;4.95;;;;;;;29.90;37.60;96595.13;5074929;28;20026;-30
2023/08/20 05:04:17;;;;;;;7.15;4.88;;;;;;;29.98;37.51;96587.53;5082770;28;20024;-30
2023/08/20 05:06:42;;;;;;;5.28;4.72;;;;;;;30.20;37.57;96589.66;5081665;28;20016;-30
2023/08/20 05:09:08;;;;;;;7.10;5.53;;;;;;;30.14;37.39;96593.94;5082357;28;20029;-30
2023/08/20 05:11:33;;;;;;;6.50;5.20;;;;;;;30.33;36.86;96594.38;5082140;28;20063;-30
2023/08/20 05:13:59;;;;;;;7.93;5.70;;;;;;;30.35;37.25;96602.97;5087082;28;20148;-30
2023/08/20 05:16:24;;;;;;;8.63;5.60;;;;;;;30.26;37.47;96606.31;5083944;28;20027;-30
2023/08/20 05:18:49;;;;;;;6.53;5.90;;;;;;;30.18;37.91;96600.66;5081603;28;20067;-30
2023/08/20 05:21:15;;;;;;;7.82;6.05;;;;;;;30.24;38.02;96601.25;5081092;28;20031;-31
2023/08/20 05:23:40;;;;;;;8.13;6.10;;;;;;;30.23;38.14;96601.81;5083887;28;20386;-31
2023/08/20 05:26:07;;;;;;;6.97;6.32;;;;;;;30.23;38.12;96599.75;5084805;28;20041;-30
2023/08/20 05:28:33;;;;;;;7.07;6.40;;;;;;;30.27;37.90;96607.78;5084455;28;20452;-30
2023/08/20 05:30:58;;;;;;;8.32;6.55;;;;;;;30.21;38.10;96598.81;5076660;28;20020;-30
2023/08/20 05:33:24;;;;;;;9.75;6.22;;;;;;;30.16;38.59;96606.09;5079144;28;20099;-30
2023/08/20 05:35:50;;;;;;;7.75;6.57;;;;;;;30.32;38.12;96606.88;5081983;28;20025;-30
2023/08/20 05:38:16;;;;;;;8.20;6.82;;;;;;;30.15;38.71;96610.19;5081554;28;20117;-30
2023/08/20 05:40:42;;;;;;;8.95;7.40;;;;;;;30.09;38.66;96606.03;5081533;28;20016;-30
2023/08/20 05:43:08;;;;;;;8.15;6.90;;;;;;;30.34;38.49;96607.81;5081376;28;20496;-30
2023/08/20 05:45:33;;;;;;;10.07;6.65;;;;;;;30.48;38.23;96599.25;5081376;28;20020;-30
2023/08/20 05:47:59;;;;;;;8.95;7.22;;;;;;;30.34;38.19;96607.81;5081133;28;20030;-30
2023/08/20 05:50:24;;;;;;;7.93;7.03;;;;;;;30.11;38.63;96603.44;5084484;28;20028;-30
2023/08/20 05:52:50;;;;;;;8.63;6.95;;;;;;;30.15;39.16;96601.78;5084044;28;20030;-30
2023/08/20 05:55:15;;;;;;;12.52;7.80;;;;;;;30.32;38.36;96604.81;5082982;28;20028;-31
2023/08/20 05:57:42;;;;;;;9.98;7.53;;;;;;;30.24;39.08;96603.31;5084039;28;20061;-30
2023/08/20 06:00:09;;;;;;;8.55;7.75;;;;;;;30.14;38.93;96602.34;5076000;28;20024;-31
2023/08/20 06:02:34;;;;;;;8.45;7.55;;;;;;;30.24;38.95;96594.91;5073785;28;20107;-30
2023/08/20 06:05:00;;;;;;;9.50;7.57;;;;;;;30.20;39.21;96594.50;5079894;28;20024;-30
2023/08/20 06:07:25;;;;;;;11.45;8.95;;;;;;;30.44;38.60;96594.03;5075637;28;20020;-30
2023/08/20 06:09:51;;;;;;;10.52;8.50;;;;;;;30.13;39.36;96601.59;5087066;28;20389;-30
2023/08/20 06:12:17;;;;;;;9.65;8.52;;;;;;;30.29;39.04;96597.53;5088215;28;20047;-30
2023/08/20 06:14:42;;;;;;;9.43;8.43;;;;;;;30.36;38.77;96605.22;5083044;28;20116;-30
2023/08/20 06:17:08;;;;;;;9.23;8.30;;;;;;;30.15;39.41;96607.38;5078489;28;20107;-30
2023/08/20 06:19:34;;;;;;;9.77;8.73;;;;;;;30.34;39.06;96609.84;5081390;28;20024;-30
2023/08/20 06:21:59;;;;;;;11.30;9.02;;;;;;;30.32;39.29;96610.41;5083818;28;20099;-30
2023/08/20 06:24:25;;;;;;;11.25;8.93;;;;;;;30.37;38.89;96614.34;5084071;28;20547;-31
2023/08/20 06:26:51;;;;;;;10.20;8.63;;;;;;;30.43;39.06;96602.97;5083152;28;20033;-30
2023/08/20 06:29:17;;;;;;;10.52;9.45;;;;;;;30.28;38.89;96612.84;5078206;28;20470;-30
2023/08/20 06:31:42;;;;;;;9.15;8.35;;;;;;;30.51;38.95;96621.28;5080484;28;20097;-30
2023/08/20 06:34:08;;;;;;;11.38;9.68;;;;;;;30.19;39.25;96609.81;5080867;28;20024;-31
2023/08/20 06:36:33;;;;;;;10.50;9.50;;;;;;;30.42;39.21;96615.47;5080239;28;20019;-30
2023/08/20 06:38:58;;;;;;;9.93;8.93;;;;;;;30.42;39.15;96613.41;5081284;28;20254;-30
2023/08/20 06:41:24;;;;;;;10.02;9.02;;;;;;;30.58;38.93;96617.78;5080224;28;20012;-30
2023/08/20 06:43:49;;;;;;;10.75;9.07;;;;;;;30.54;38.78;96611.06;5079846;28;20048;-31
2023/08/20 06:46:15;;;;;;;11.57;9.27;;;;;;;30.46;38.93;96621.44;5083198;28;20469;-30
2023/08/20 06:48:40;;;;;;;10.93;9.10;;;;;;;30.49;38.42;96621.09;5083506;28;20038;-30
2023/08/20 06:51:19;;;;;;;10.32;9.23;;;;;;;30.48;38.89;96621.66;5082170;28;20052;-30
2023/08/20 06:53:44;;;;;;;10.68;9.63;;;;;;;30.53;38.22;96623.53;5086504;28;20039;-30
2023/08/20 06:56:11;;;;;;;11.15;9.52;;;;;;;30.46;38.54;96625.00;5082045;28;20105;-30
2023/08/20 06:58:37;;;;;;;13.35;9.48;;;;;;;30.68;37.98;96623.56;5080345;28;20020;-30
2023/08/20 07:01:09;;;;;;;15.43;9.00;;;;;;;30.51;38.79;96628.94;5080125;28;20107;-30
2023/08/20 07:03:41;;;;;;;9.60;8.68;;;;;;;30.52;38.81;96622.03;5080472;28;20478;-30
2023/08/20 07:06:09;;;;;;;9.52;8.68;;;;;;;30.52;38.57;96617.19;5080561;28;20032;-30
2023/08/20 07:08:35;;;;;;;9.20;8.30;;;;;;;30.67;38.61;96616.47;5080609;28;20464;-31
2023/08/20 07:11:01;;;;;;;11.18;9.18;;;;;;;30.57;38.91;96621.13;5080218;28;20021;-30
2023/08/20 07:13:26;;;;;;;10.43;9.43;;;;;;;30.66;38.79;96612.22;5080329;28;20031;-30
2023/08/20 07:15:52;;;;;;;9.75;8.75;;;;;;;30.66;38.66;96612.94;5080131;28;20027;-30
2023/08/20 07:18:17;;;;;;;10.13;9.07;;;;;;;30.72;38.27;96612.78;5079885;28;20031;-30
2023/08/20 07:20:43;;;;;;;9.75;8.75;;;;;;;30.71;38.43;96616.88;5080124;28;20543;-30
2023/08/20 07:23:10;;;;;;;10.90;9.05;;;;;;;30.59;38.54;96612.94;5079984;28;20555;-30
2023/08/20 07:25:40;;;;;;;9.68;8.77;;;;;;;30.67;38.60;96613.69;5073163;28;20473;-30
2023/08/20 07:28:07;;;;;;;10.10;9.10;;;;;;;30.70;38.84;96626.56;5085291;28;20389;-30
2023/08/20 07:30:32;;;;;;;11.15;9.25;;;;;;;30.82;38.12;96610.16;5087134;28;20016;-30
2023/08/20 07:32:58;;;;;;;11.52;9.88;;;;;;;30.77;38.39;96616.69;5080620;28;20047;-30
2023/08/20 07:35:24;;;;;;;10.20;9.02;;;;;;;30.85;38.53;96623.06;5078612;28;20057;-30
2023/08/20 07:37:49;;;;;;;11.23;8.95;;;;;;;30.90;37.89;96617.28;5074643;28;20120;-30
2023/08/20 07:40:15;;;;;;;9.32;8.43;;;;;;;30.79;38.16;96614.81;5080101;28;20016;-30
2023/08/20 07:42:41;;;;;;;11.23;9.23;;;;;;;30.95;38.25;96618.38;5080000;28;20020;-30
2023/08/20 07:45:07;;;;;;;9.52;8.52;;;;;;;31.05;37.72;96622.13;5083522;28;20047;-30
2023/08/20 07:47:33;;;;;;;11.65;8.90;;;;;;;30.99;37.95;96613.91;5083325;28;20474;-30
2023/08/20 07:49:59;;;;;;;9.88;8.88;;;;;;;30.94;38.32;96622.50;5083741;28;20035;-30
2023/08/20 07:52:25;;;;;;;10.05;9.02;;;;;;;31.01;37.74;96627.38;5083457;28;20018;-30
2023/08/20 07:54:50;;;;;;;9.88;8.88;;;;;;;31.08;37.47;96621.00;5083183;28;20056;-30
2023/08/20 07:57:15;;;;;;;10.43;8.82;;;;;;;31.11;37.28;96619.16;5078468;28;20033;-32
2023/08/20 07:59:41;;;;;;;10.75;9.35;;;;;;;31.22;37.60;96625.16;5089186;28;20097;-30
2023/08/20 08:02:06;;;;;;;11.05;8.75;;;;;;;31.26;37.21;96630.38;5082854;28;20025;-30
2023/08/20 08:04:33;;;;;;;10.23;8.90;;;;;;;31.15;37.74;96623.09;5085928;28;20106;-30
2023/08/20 08:06:59;;;;;;;11.10;9.15;;;;;;;31.18;37.70;96626.81;5081050;28;20036;-31
2023/08/20 08:09:30;;;;;;;10.05;8.55;;;;;;;31.29;37.54;96632.03;5090950;28;20036;-30
2023/08/20 08:11:55;;;;;;;13.48;9.40;;;;;;;31.30;37.54;96630.72;5082875;28;20386;-30
2023/08/20 08:14:21;;;;;;;10.50;8.90;;;;;;;31.33;37.54;96635.97;5083542;28;20024;-30
2023/08/20 08:16:46;;;;;;;10.27;8.85;;;;;;;31.27;37.62;96629.06;5083045;28;20020;-30
2023/08/20 08:19:12;;;;;;;9.95;8.90;;;;;;;31.25;37.05;96634.50;5082965;28;20024;-30
2023/08/20 08:21:38;;;;;;;13.00;8.57;;;;;;;31.30;37.24;96636.34;5082844;28;20424;-31
2023/08/20 08:24:04;;;;;;;9.63;8.73;;;;;;;31.36;37.05;96639.72;5075700;28;20040;-30
2023/08/20 08:26:31;;;;;;;9.25;8.32;;;;;;;31.39;36.84;96641.41;5074075;28;20085;-31
2023/08/20 08:28:56;;;;;;;10.48;9.02;;;;;;;31.39;37.14;96647.00;5083316;28;20020;-30
2023/08/20 08:31:22;;;;;;;11.70;9.13;;;;;;;31.39;37.24;96644.94;5081698;28;20491;-31
2023/08/20 08:33:48;;;;;;;11.15;8.98;;;;;;;31.33;36.97;96654.84;5084746;28;20020;-30
2023/08/20 08:36:15;;;;;;;10.05;9.02;;;;;;;31.54;36.54;96655.38;5086039;28;20020;-30
2023/08/20 08:38:40;;;;;;;9.43;8.48;;;;;;;31.40;36.58;96657.63;5085905;28;20040;-30
2023/08/20 08:41:11;;;;;;;9.50;8.60;;;;;;;31.48;36.83;96657.63;5082482;28;20081;-30
2023/08/20 08:43:38;;;;;;;9.85;8.85;;;;;;;31.47;36.42;96664.53;5075826;28;20033;-30
2023/08/20 08:46:07;;;;;;;13.20;9.55;;;;;;;31.38;36.63;96660.25;5083898;28;20050;-31
2023/08/20 08:48:38;;;;;;;10.02;9.02;;;;;;;31.23;37.11;96659.50;5080874;28;20386;-30
2023/08/20 08:51:03;;;;;;;10.95;9.05;;;;;;;31.43;36.32;96662.13;5082572;28;20027;-30
2023/08/20 08:53:31;;;;;;;10.25;9.25;;;;;;;31.36;36.57;96657.28;5085760;28;20024;-30
2023/08/20 08:55:57;;;;;;;9.80;8.90;;;;;;;31.47;37.04;96653.34;5077552;28;20074;-30
2023/08/20 08:58:22;;;;;;;10.30;9.30;;;;;;;31.39;37.08;96655.41;5088625;28;20461;-30
2023/08/20 09:00:49;;;;;;;9.95;9.00;;;;;;;31.36;36.50;96668.47;5082040;28;20008;-30
2023/08/20 09:03:14;;;;;;;11.07;9.82;;;;;;;31.42;36.66;96660.63;5082732;28;20602;-30
2023/08/20 09:05:56;;;;;;;10.35;9.35;;;;;;;31.59;36.54;96668.47;5085769;28;20020;-30
2023/08/20 09:08:31;;;;;;;10.25;8.70;;;;;;;31.50;36.71;96654.28;5084062;28;20069;-31
2023/08/20 09:10:59;;;;;;;9.57;8.57;;;;;;;31.44;37.00;96662.88;5081932;28;20021;-30
2023/08/20 09:13:25;;;;;;;9.35;8.45;;;;;;;31.51;36.51;96670.53;5082314;28;20034;-30
2023/08/20 09:15:52;;;;;;;9.63;8.02;;;;;;;31.54;36.34;96660.97;5085372;28;20035;-30
2023/08/20 09:18:18;;;;;;;8.45;7.63;;;;;;;31.45;36.22;96664.34;5078247;28;20024;-30
2023/08/20 09:20:43;;;;;;;8.90;8.00;;;;;;;31.53;36.49;96658.75;5083460;28;20016;-30
2023/08/20 09:23:15;;;;;;;10.07;8.18;;;;;;;31.56;36.22;96652.75;5084760;28;20061;-31
2023/08/20 09:25:41;;;;;;;9.10;7.88;;;;;;;31.54;36.27;96660.22;5083650;28;20017;-31
2023/08/20 09:28:07;;;;;;;8.85;7.95;;;;;;;31.57;36.78;96659.88;5080793;28;20028;-30
2023/08/20 09:30:32;;;;;;;10.20;8.60;;;;;;;31.61;36.47;96654.63;5088909;28;20066;-30
2023/08/20 09:33:05;;;;;;;9.20;7.95;;;;;;;31.65;36.24;96657.81;5077168;28;20370;-30
2023/08/20 09:35:30;;;;;;;9.48;8.48;;;;;;;31.64;36.54;96656.34;5085250;28;20024;-30
2023/08/20 09:38:03;;;;;;;10.52;7.60;;;;;;;31.62;36.33;96658.94;5082126;28;20043;-30
2023/08/20 09:40:30;;;;;;;8.75;7.85;;;;;;;31.53;36.62;96667.91;5081499;28;20463;-30
2023/08/20 09:42:56;;;;;;;8.63;7.85;;;;;;;31.59;36.19;96657.25;5081563;28;20039;-30
2023/08/20 09:45:27;;;;;;;9.02;8.13;;;;;;;31.68;36.15;96655.94;5078302;28;20036;-30
2023/08/20 09:47:58;;;;;;;10.98;7.78;;;;;;;31.62;36.24;96644.91;5076718;28;20075;-30
2023/08/20 09:50:26;;;;;;;9.38;7.47;;;;;;;31.78;35.90;96645.63;5081949;28;20051;-31
2023/08/20 09:53:24;;;;;;;8.00;7.22;;;;;;;31.72;35.72;96645.84;5081178;28;20016;-30
2023/08/20 09:55:51;;;;;;;9.75;7.55;;;;;;;31.63;35.90;96652.00;5080473;28;20408;-32
2023/08/20 09:58:21;;;;;;;8.52;7.60;;;;;;;31.66;36.23;96647.34;5082156;28;20077;-30
2023/08/20 10:00:48;;;;;;;10.98;8.02;;;;;;;31.68;36.02;96645.47;5077945;28;20374;-30
2023/08/20 10:03:14;;;;;;;8.18;6.88;;;;;;;31.68;34.92;96662.31;5081224;28;20559;-31
2023/08/20 10:05:40;;;;;;;8.15;7.32;;;;;;;31.74;35.04;96648.84;5081181;28;20072;-31
2023/08/20 10:08:07;;;;;;;9.55;7.68;;;;;;;31.78;34.58;96640.78;5080168;28;20025;-30
2023/08/20 10:10:34;;;;;;;9.25;8.32;;;;;;;31.70;34.47;96645.66;5080985;28;20031;-30
2023/08/20 10:13:00;;;;;;;8.88;7.95;;;;;;;31.72;34.17;96664.72;5071851;28;20081;-30
2023/08/20 10:15:28;;;;;;;8.48;7.72;;;;;;;31.93;34.36;96639.25;5080905;28;20020;-30
2023/08/20 10:17:53;;;;;;;9.68;7.90;;;;;;;31.86;34.47;96640.03;5077182;28;20016;-31
2023/08/20 10:20:19;;;;;;;11.13;7.78;;;;;;;31.81;34.14;96638.91;5077481;28;20146;-30
2023/08/20 10:22:45;;;;;;;13.38;7.82;;;;;;;31.92;33.58;96634.94;5088304;28;20476;-30
2023/08/20 10:25:21;;;;;;;8.05;7.25;;;;;;;31.85;33.92;96632.91;5080896;28;20099;-31
2023/08/20 10:27:47;;;;;;;9.60;7.93;;;;;;;31.85;33.95;96641.34;5088090;28;20070;-30
2023/08/20 10:30:21;;;;;;;9.63;7.20;;;;;;;31.84;33.90;96637.03;5072997;28;20028;-30
2023/08/20 10:32:48;;;;;;;12.27;8.10;;;;;;;31.87;33.21;96639.47;5080835;28;20111;-31
2023/08/20 10:35:18;;;;;;;8.75;7.35;;;;;;;31.89;33.56;96630.50;5084818;28;20062;-30
2023/08/20 10:38:07;;;;;;;13.57;7.53;;;;;;;31.82;33.13;96634.03;5083257;28;20055;-31
2023/08/20 10:40:57;;;;;;;10.38;7.53;;;;;;;31.93;33.09;96636.44;5080875;28;20017;-30
2023/08/20 10:43:25;;;;;;;8.60;7.28;;;;;;;31.85;33.22;96624.50;5080106;28;20125;-31
2023/08/20 10:46:06;;;;;;;7.55;6.85;;;;;;;31.89;33.46;96628.44;5080345;28;20457;-30
2023/08/20 10:48:35;;;;;;;7.75;6.43;;;;;;;31.95;33.00;96636.63;5080374;28;20025;-30
2023/08/20 10:51:23;;;;;;;11.05;6.88;;;;;;;32.00;32.31;96638.50;5080548;28;20067;-30
2023/08/20 10:54:04;;;;;;;8.25;6.25;;;;;;;31.93;32.89;96622.41;5086740;28;20069;-30
2023/08/20 10:56:45;;;;;;;8.13;6.20;;;;;;;31.95;32.53;96622.59;5080032;28;20465;-30
2023/08/20 10:59:26;;;;;;;8.02;5.75;;;;;;;31.94;32.54;96621.84;5079743;28;20028;-31
2023/08/20 11:01:54;;;;;;;6.82;6.13;;;;;;;31.99;32.23;96622.97;5080124;28;20033;-31
2023/08/20 11:04:23;;;;;;;6.32;5.60;;;;;;;32.10;32.13;96616.94;5073896;28;20039;-30
2023/08/20 11:06:58;;;;;;;6.75;6.13;;;;;;;32.06;32.02;96613.78;5078835;28;20017;-30
2023/08/20 11:09:27;;;;;;;6.20;5.60;;;;;;;32.02;31.88;96619.75;5080806;28;20028;-31
2023/08/20 11:11:53;;;;;;;6.82;6.07;;;;;;;32.10;31.54;96617.69;5078688;28;20032;-31
2023/08/20 11:14:20;;;;;;;8.00;6.10;;;;;;;32.08;31.30;96608.34;5079768;28;20025;-29
2023/08/20 11:16:46;;;;;;;11.02;5.63;;;;;;;32.08;31.75;96620.31;5080113;28;20070;-31
2023/08/20 11:19:13;;;;;;;7.47;5.90;;;;;;;32.11;31.69;96604.41;5083594;28;20392;-30
2023/08/20 11:21:40;;;;;;;6.32;5.75;;;;;;;32.13;31.51;96605.34;5083982;28;20062;-30
2023/08/20 11:24:06;;;;;;;7.32;5.72;;;;;;;32.11;31.32;96602.34;5084143;28;20028;-30
2023/08/20 11:26:38;;;;;;;9.25;5.70;;;;;;;32.15;30.77;96604.75;5083775;28;20498;-30
2023/08/20 11:29:31;;;;;;;9.30;5.60;;;;;;;32.11;31.29;96601.59;5084057;28;20107;-31
2023/08/20 11:31:57;;;;;;;7.35;5.90;;;;;;;32.17;31.48;96598.56;5083848;28;20039;-31
2023/08/20 11:34:23;;;;;;;13.13;5.95;;;;;;;32.17;31.07;96590.16;5084220;28;20382;-31